sensor_id;sensor_type;location;lat;lon;timestamp;temperature;humidity
63899;HTU21D;50070;-32.946;-60.652;2023-02-04T00:02:03;27.38;50.59
63899;HTU21D;50070;-32.946;-60.652;2023-02-04T00:04:33;27.37;50.47
63899;HTU21D;50070;-32.946;-60.652;2023-02-04T00:07:03;27.44;50.34
63899;HTU21D;50070;-32.946;-60.652;2023-02-04T00:09:30;27.37;50.47
63899;HTU21D;50070;-32.946;-60.652;2023-02-04T00:12:00;27.34;50.72
63899;HTU21D;50070;-32.946;-60.652;2023-02-04T00:14:27;27.26;50.89
63899;HTU21D;50070;-32.946;-60.652;2023-02-04T00:16:54;27.27;50.71
63899;HTU21D;50070;-32.946;-60.652;2023-02-04T00:19:21;27.21;51.01
63899;HTU21D;50070;-32.946;-60.652;2023-02-04T00:21:48;27.11;51.37
63899;HTU21D;50070;-32.946;-60.652;2023-02-04T00:24:15;27.15;51.32
63899;HTU21D;50070;-32.946;-60.652;2023-02-04T00:26:42;27.15;51.45
63899;HTU21D;50070;-32.946;-60.652;2023-02-04T00:29:08;27.10;51.65
63899;HTU21D;50070;-32.946;-60.652;2023-02-04T00:31:35;27.21;51.33
63899;HTU21D;50070;-32.946;-60.652;2023-02-04T00:34:02;27.16;51.40
63899;HTU21D;50070;-32.946;-60.652;2023-02-04T00:36:31;27.16;51.41
63899;HTU21D;50070;-32.946;-60.652;2023-02-04T00:38:58;27.10;51.80
63899;HTU21D;50070;-32.946;-60.652;2023-02-04T00:41:25;27.23;51.56
63899;HTU21D;50070;-32.946;-60.652;2023-02-04T00:43:52;27.12;52.04
63899;HTU21D;50070;-32.946;-60.652;2023-02-04T00:46:19;27.15;51.98
63899;HTU21D;50070;-32.946;-60.652;2023-02-04T00:48:46;27.08;52.38
63899;HTU21D;50070;-32.946;-60.652;2023-02-04T00:51:13;27.10;52.28
63899;HTU21D;50070;-32.946;-60.652;2023-02-04T00:53:42;27.27;51.93
63899;HTU21D;50070;-32.946;-60.652;2023-02-04T00:56:09;27.15;52.23
63899;HTU21D;50070;-32.946;-60.652;2023-02-04T00:58:36;27.31;51.96
63899;HTU21D;50070;-32.946;-60.652;2023-02-04T01:01:03;27.16;52.36
63899;HTU21D;50070;-32.946;-60.652;2023-02-04T01:03:30;27.42;51.74
63899;HTU21D;50070;-32.946;-60.652;2023-02-04T01:06:00;27.30;52.13
63899;HTU21D;50070;-32.946;-60.652;2023-02-04T01:08:27;27.22;52.53
63899;HTU21D;50070;-32.946;-60.652;2023-02-04T01:10:56;27.01;53.01
63899;HTU21D;50070;-32.946;-60.652;2023-02-04T01:13:23;27.11;52.77
63899;HTU21D;50070;-32.946;-60.652;2023-02-04T01:15:53;27.09;52.62
63899;HTU21D;50070;-32.946;-60.652;2023-02-04T01:18:20;27.01;52.31
63899;HTU21D;50070;-32.946;-60.652;2023-02-04T01:20:52;27.00;52.06
63899;HTU21D;50070;-32.946;-60.652;2023-02-04T01:23:22;26.94;52.01
63899;HTU21D;50070;-32.946;-60.652;2023-02-04T01:25:55;27.34;50.86
63899;HTU21D;50070;-32.946;-60.652;2023-02-04T01:28:24;27.16;49.04
63899;HTU21D;50070;-32.946;-60.652;2023-02-04T01:30:51;27.09;48.22
63899;HTU21D;50070;-32.946;-60.652;2023-02-04T01:33:28;26.93;48.73
63899;HTU21D;50070;-32.946;-60.652;2023-02-04T01:36:04;26.99;48.50
63899;HTU21D;50070;-32.946;-60.652;2023-02-04T01:38:31;27.05;47.82
63899;HTU21D;50070;-32.946;-60.652;2023-02-04T01:41:01;27.00;47.51
63899;HTU21D;50070;-32.946;-60.652;2023-02-04T01:43:37;26.85;47.74
63899;HTU21D;50070;-32.946;-60.652;2023-02-04T01:46:22;26.84;47.99
63899;HTU21D;50070;-32.946;-60.652;2023-02-04T01:48:51;26.77;47.73
63899;HTU21D;50070;-32.946;-60.652;2023-02-04T01:51:28;26.84;47.69
63899;HTU21D;50070;-32.946;-60.652;2023-02-04T01:53:59;26.85;47.77
63899;HTU21D;50070;-32.946;-60.652;2023-02-04T01:56:46;26.89;47.70
63899;HTU21D;50070;-32.946;-60.652;2023-02-04T01:59:15;26.67;48.25
63899;HTU21D;50070;-32.946;-60.652;2023-02-04T02:01:46;26.43;48.91
63899;HTU21D;50070;-32.946;-60.652;2023-02-04T02:04:26;26.55;48.72
63899;HTU21D;50070;-32.946;-60.652;2023-02-04T02:09:57;26.16;49.88
63899;HTU21D;50070;-32.946;-60.652;2023-02-04T02:12:26;26.30;49.42
63899;HTU21D;50070;-32.946;-60.652;2023-02-04T02:14:53;26.30;49.23
63899;HTU21D;50070;-32.946;-60.652;2023-02-04T02:17:40;26.40;48.99
63899;HTU21D;50070;-32.946;-60.652;2023-02-04T02:20:17;26.53;48.55
63899;HTU21D;50070;-32.946;-60.652;2023-02-04T02:23:13;26.28;49.09
63899;HTU21D;50070;-32.946;-60.652;2023-02-04T02:25:41;26.28;49.11
63899;HTU21D;50070;-32.946;-60.652;2023-02-04T02:28:29;26.18;49.53
63899;HTU21D;50070;-32.946;-60.652;2023-02-04T02:30:58;26.07;50.21
63899;HTU21D;50070;-32.946;-60.652;2023-02-04T02:33:28;26.08;50.45
63899;HTU21D;50070;-32.946;-60.652;2023-02-04T02:35:54;26.21;50.50
63899;HTU21D;50070;-32.946;-60.652;2023-02-04T02:38:21;26.08;51.09
63899;HTU21D;50070;-32.946;-60.652;2023-02-04T02:40:49;26.09;51.17
63899;HTU21D;50070;-32.946;-60.652;2023-02-04T02:43:23;26.15;51.14
63899;HTU21D;50070;-32.946;-60.652;2023-02-04T02:45:57;26.26;51.01
63899;HTU21D;50070;-32.946;-60.652;2023-02-04T02:48:25;26.12;51.46
63899;HTU21D;50070;-32.946;-60.652;2023-02-04T02:50:55;26.19;51.56
63899;HTU21D;50070;-32.946;-60.652;2023-02-04T02:53:33;26.38;51.85
63899;HTU21D;50070;-32.946;-60.652;2023-02-04T02:56:11;25.94;53.54
63899;HTU21D;50070;-32.946;-60.652;2023-02-04T02:58:41;25.82;54.30
63899;HTU21D;50070;-32.946;-60.652;2023-02-04T03:01:09;26.08;53.78
63899;HTU21D;50070;-32.946;-60.652;2023-02-04T03:03:41;26.17;53.66
63899;HTU21D;50070;-32.946;-60.652;2023-02-04T03:06:19;26.16;53.83
63899;HTU21D;50070;-32.946;-60.652;2023-02-04T03:08:48;26.01;54.39
63899;HTU21D;50070;-32.946;-60.652;2023-02-04T03:11:20;25.97;54.93
63899;HTU21D;50070;-32.946;-60.652;2023-02-04T03:13:47;25.69;55.95
63899;HTU21D;50070;-32.946;-60.652;2023-02-04T03:16:15;25.80;55.82
63899;HTU21D;50070;-32.946;-60.652;2023-02-04T03:18:42;25.94;55.49
63899;HTU21D;50070;-32.946;-60.652;2023-02-04T03:21:08;25.92;55.63
63899;HTU21D;50070;-32.946;-60.652;2023-02-04T03:23:36;25.66;56.51
63899;HTU21D;50070;-32.946;-60.652;2023-02-04T03:26:04;25.50;57.24
63899;HTU21D;50070;-32.946;-60.652;2023-02-04T03:28:31;25.61;56.84
63899;HTU21D;50070;-32.946;-60.652;2023-02-04T03:30:58;25.50;57.38
63899;HTU21D;50070;-32.946;-60.652;2023-02-04T03:33:27;25.60;57.26
63899;HTU21D;50070;-32.946;-60.652;2023-02-04T03:35:57;25.61;56.95
63899;HTU21D;50070;-32.946;-60.652;2023-02-04T03:38:24;25.23;58.20
63899;HTU21D;50070;-32.946;-60.652;2023-02-04T03:40:54;25.46;57.52
63899;HTU21D;50070;-32.946;-60.652;2023-02-04T03:43:20;25.57;57.17
63899;HTU21D;50070;-32.946;-60.652;2023-02-04T03:45:50;25.52;57.09
63899;HTU21D;50070;-32.946;-60.652;2023-02-04T03:48:25;25.31;57.90
63899;HTU21D;50070;-32.946;-60.652;2023-02-04T03:50:52;25.32;57.74
63899;HTU21D;50070;-32.946;-60.652;2023-02-04T03:53:21;25.50;57.27
63899;HTU21D;50070;-32.946;-60.652;2023-02-04T03:55:49;25.40;57.58
63899;HTU21D;50070;-32.946;-60.652;2023-02-04T03:58:16;25.22;58.15
63899;HTU21D;50070;-32.946;-60.652;2023-02-04T04:00:43;25.20;58.13
63899;HTU21D;50070;-32.946;-60.652;2023-02-04T04:03:09;24.89;59.26
63899;HTU21D;50070;-32.946;-60.652;2023-02-04T04:05:36;25.31;58.10
63899;HTU21D;50070;-32.946;-60.652;2023-02-04T04:08:03;25.42;57.64
63899;HTU21D;50070;-32.946;-60.652;2023-02-04T04:10:30;25.21;58.19
63899;HTU21D;50070;-32.946;-60.652;2023-02-04T04:13:00;25.21;58.22
63899;HTU21D;50070;-32.946;-60.652;2023-02-04T04:15:26;24.94;59.10
63899;HTU21D;50070;-32.946;-60.652;2023-02-04T04:17:59;25.27;58.09
63899;HTU21D;50070;-32.946;-60.652;2023-02-04T04:20:25;24.89;59.60
63899;HTU21D;50070;-32.946;-60.652;2023-02-04T04:22:54;25.09;58.97
63899;HTU21D;50070;-32.946;-60.652;2023-02-04T04:25:36;24.85;59.96
63899;HTU21D;50070;-32.946;-60.652;2023-02-04T04:28:03;24.87;60.06
63899;HTU21D;50070;-32.946;-60.652;2023-02-04T04:30:30;24.58;61.28
63899;HTU21D;50070;-32.946;-60.652;2023-02-04T04:32:57;24.62;61.31
63899;HTU21D;50070;-32.946;-60.652;2023-02-04T04:35:23;24.71;61.18
63899;HTU21D;50070;-32.946;-60.652;2023-02-04T04:37:50;24.76;61.14
63899;HTU21D;50070;-32.946;-60.652;2023-02-04T04:40:17;24.54;62.13
63899;HTU21D;50070;-32.946;-60.652;2023-02-04T04:42:44;24.21;63.50
63899;HTU21D;50070;-32.946;-60.652;2023-02-04T04:45:11;24.45;62.63
63899;HTU21D;50070;-32.946;-60.652;2023-02-04T04:47:39;24.47;62.31
63899;HTU21D;50070;-32.946;-60.652;2023-02-04T04:50:27;24.39;62.62
63899;HTU21D;50070;-32.946;-60.652;2023-02-04T04:52:53;24.56;61.93
63899;HTU21D;50070;-32.946;-60.652;2023-02-04T04:55:20;24.42;62.71
63899;HTU21D;50070;-32.946;-60.652;2023-02-04T04:57:47;24.41;63.10
63899;HTU21D;50070;-32.946;-60.652;2023-02-04T05:00:17;24.29;63.82
63899;HTU21D;50070;-32.946;-60.652;2023-02-04T05:02:44;23.87;65.56
63899;HTU21D;50070;-32.946;-60.652;2023-02-04T05:05:11;24.00;65.14
63899;HTU21D;50070;-32.946;-60.652;2023-02-04T05:07:38;24.09;65.01
63899;HTU21D;50070;-32.946;-60.652;2023-02-04T05:10:05;24.28;64.37
63899;HTU21D;50070;-32.946;-60.652;2023-02-04T05:12:32;23.95;65.53
63899;HTU21D;50070;-32.946;-60.652;2023-02-04T05:14:59;24.05;65.48
63899;HTU21D;50070;-32.946;-60.652;2023-02-04T05:17:26;23.98;65.90
63899;HTU21D;50070;-32.946;-60.652;2023-02-04T05:19:52;24.06;65.66
63899;HTU21D;50070;-32.946;-60.652;2023-02-04T05:22:19;23.99;66.26
63899;HTU21D;50070;-32.946;-60.652;2023-02-04T05:24:46;24.02;66.19
63899;HTU21D;50070;-32.946;-60.652;2023-02-04T05:27:13;23.91;66.90
63899;HTU21D;50070;-32.946;-60.652;2023-02-04T05:29:39;23.90;66.87
63899;HTU21D;50070;-32.946;-60.652;2023-02-04T05:32:06;23.96;66.60
63899;HTU21D;50070;-32.946;-60.652;2023-02-04T05:34:33;23.87;66.83
63899;HTU21D;50070;-32.946;-60.652;2023-02-04T05:37:00;24.11;65.80
63899;HTU21D;50070;-32.946;-60.652;2023-02-04T05:39:27;24.12;65.66
63899;HTU21D;50070;-32.946;-60.652;2023-02-04T05:41:54;23.87;66.91
63899;HTU21D;50070;-32.946;-60.652;2023-02-04T05:44:20;24.04;66.14
63899;HTU21D;50070;-32.946;-60.652;2023-02-04T05:46:47;23.80;67.10
63899;HTU21D;50070;-32.946;-60.652;2023-02-04T05:49:14;23.62;67.70
63899;HTU21D;50070;-32.946;-60.652;2023-02-04T05:51:41;23.85;66.73
63899;HTU21D;50070;-32.946;-60.652;2023-02-04T05:54:07;24.00;66.04
63899;HTU21D;50070;-32.946;-60.652;2023-02-04T05:56:34;24.28;65.02
63899;HTU21D;50070;-32.946;-60.652;2023-02-04T05:59:01;24.20;65.23
63899;HTU21D;50070;-32.946;-60.652;2023-02-04T06:01:29;24.43;64.74
63899;HTU21D;50070;-32.946;-60.652;2023-02-04T06:03:56;24.32;65.04
63899;HTU21D;50070;-32.946;-60.652;2023-02-04T06:06:23;24.16;65.63
63899;HTU21D;50070;-32.946;-60.652;2023-02-04T06:08:49;23.77;67.09
63899;HTU21D;50070;-32.946;-60.652;2023-02-04T06:11:16;23.97;66.47
63899;HTU21D;50070;-32.946;-60.652;2023-02-04T06:13:43;23.96;66.62
63899;HTU21D;50070;-32.946;-60.652;2023-02-04T06:16:10;23.80;67.27
63899;HTU21D;50070;-32.946;-60.652;2023-02-04T06:18:36;23.75;67.43
63899;HTU21D;50070;-32.946;-60.652;2023-02-04T06:21:03;23.94;66.69
63899;HTU21D;50070;-32.946;-60.652;2023-02-04T06:23:31;23.89;66.81
63899;HTU21D;50070;-32.946;-60.652;2023-02-04T06:26:01;23.91;66.53
63899;HTU21D;50070;-32.946;-60.652;2023-02-04T06:28:27;23.94;66.50
63899;HTU21D;50070;-32.946;-60.652;2023-02-04T06:30:54;24.24;65.40
63899;HTU21D;50070;-32.946;-60.652;2023-02-04T06:33:21;24.16;65.74
63899;HTU21D;50070;-32.946;-60.652;2023-02-04T06:35:49;24.14;65.49
63899;HTU21D;50070;-32.946;-60.652;2023-02-04T06:38:16;23.76;66.91
63899;HTU21D;50070;-32.946;-60.652;2023-02-04T06:40:43;24.01;66.17
63899;HTU21D;50070;-32.946;-60.652;2023-02-04T06:43:10;24.11;65.88
63899;HTU21D;50070;-32.946;-60.652;2023-02-04T06:45:36;23.80;67.04
63899;HTU21D;50070;-32.946;-60.652;2023-02-04T06:48:03;24.04;66.02
63899;HTU21D;50070;-32.946;-60.652;2023-02-04T06:50:29;23.83;66.72
63899;HTU21D;50070;-32.946;-60.652;2023-02-04T06:52:56;23.81;66.82
63899;HTU21D;50070;-32.946;-60.652;2023-02-04T06:55:23;23.79;67.00
63899;HTU21D;50070;-32.946;-60.652;2023-02-04T06:57:50;23.59;67.64
63899;HTU21D;50070;-32.946;-60.652;2023-02-04T07:00:17;23.70;67.15
63899;HTU21D;50070;-32.946;-60.652;2023-02-04T07:02:43;23.68;67.01
63899;HTU21D;50070;-32.946;-60.652;2023-02-04T07:05:11;23.85;66.40
63899;HTU21D;50070;-32.946;-60.652;2023-02-04T07:07:40;24.05;65.27
63899;HTU21D;50070;-32.946;-60.652;2023-02-04T07:10:07;24.02;65.27
63899;HTU21D;50070;-32.946;-60.652;2023-02-04T07:12:34;23.94;65.76
63899;HTU21D;50070;-32.946;-60.652;2023-02-04T07:15:01;24.08;65.18
63899;HTU21D;50070;-32.946;-60.652;2023-02-04T07:17:29;23.90;65.24
63899;HTU21D;50070;-32.946;-60.652;2023-02-04T07:19:56;23.87;65.53
63899;HTU21D;50070;-32.946;-60.652;2023-02-04T07:22:22;23.74;66.20
63899;HTU21D;50070;-32.946;-60.652;2023-02-04T07:24:49;23.98;65.11
63899;HTU21D;50070;-32.946;-60.652;2023-02-04T07:27:16;23.95;65.05
63899;HTU21D;50070;-32.946;-60.652;2023-02-04T07:29:43;23.99;64.91
63899;HTU21D;50070;-32.946;-60.652;2023-02-04T07:32:09;24.08;64.57
63899;HTU21D;50070;-32.946;-60.652;2023-02-04T07:34:36;23.83;65.42
63899;HTU21D;50070;-32.946;-60.652;2023-02-04T07:37:03;23.73;65.89
63899;HTU21D;50070;-32.946;-60.652;2023-02-04T07:39:30;23.62;66.09
63899;HTU21D;50070;-32.946;-60.652;2023-02-04T07:41:56;23.60;66.12
63899;HTU21D;50070;-32.946;-60.652;2023-02-04T07:44:23;23.67;65.94
63899;HTU21D;50070;-32.946;-60.652;2023-02-04T07:46:50;23.70;65.78
63899;HTU21D;50070;-32.946;-60.652;2023-02-04T07:49:17;23.79;65.34
63899;HTU21D;50070;-32.946;-60.652;2023-02-04T07:51:43;23.64;65.98
63899;HTU21D;50070;-32.946;-60.652;2023-02-04T07:54:10;23.65;66.03
63899;HTU21D;50070;-32.946;-60.652;2023-02-04T07:56:37;23.77;65.56
63899;HTU21D;50070;-32.946;-60.652;2023-02-04T07:59:03;23.84;65.27
63899;HTU21D;50070;-32.946;-60.652;2023-02-04T08:01:31;23.91;65.04
63899;HTU21D;50070;-32.946;-60.652;2023-02-04T08:03:58;24.14;63.68
63899;HTU21D;50070;-32.946;-60.652;2023-02-04T08:06:25;23.71;64.91
63899;HTU21D;50070;-32.946;-60.652;2023-02-04T08:08:54;23.60;64.98
63899;HTU21D;50070;-32.946;-60.652;2023-02-04T08:11:21;23.47;65.05
63899;HTU21D;50070;-32.946;-60.652;2023-02-04T08:13:48;23.54;64.53
63899;HTU21D;50070;-32.946;-60.652;2023-02-04T08:16:15;23.46;64.59
63899;HTU21D;50070;-32.946;-60.652;2023-02-04T08:18:44;23.46;64.43
63899;HTU21D;50070;-32.946;-60.652;2023-02-04T08:21:11;23.49;64.14
63899;HTU21D;50070;-32.946;-60.652;2023-02-04T08:23:38;23.40;64.26
63899;HTU21D;50070;-32.946;-60.652;2023-02-04T08:26:10;23.40;64.22
63899;HTU21D;50070;-32.946;-60.652;2023-02-04T08:28:37;23.01;65.27
63899;HTU21D;50070;-32.946;-60.652;2023-02-04T08:31:05;23.18;64.91
63899;HTU21D;50070;-32.946;-60.652;2023-02-04T08:33:32;23.45;63.65
63899;HTU21D;50070;-32.946;-60.652;2023-02-04T08:35:58;23.16;64.56
63899;HTU21D;50070;-32.946;-60.652;2023-02-04T08:38:25;23.13;64.95
63899;HTU21D;50070;-32.946;-60.652;2023-02-04T08:40:52;23.23;64.51
63899;HTU21D;50070;-32.946;-60.652;2023-02-04T08:43:19;23.05;65.34
63899;HTU21D;50070;-32.946;-60.652;2023-02-04T08:45:45;23.15;64.94
63899;HTU21D;50070;-32.946;-60.652;2023-02-04T08:48:12;23.45;64.07
63899;HTU21D;50070;-32.946;-60.652;2023-02-04T08:50:39;23.37;64.34
63899;HTU21D;50070;-32.946;-60.652;2023-02-04T08:53:06;23.05;65.49
63899;HTU21D;50070;-32.946;-60.652;2023-02-04T08:55:32;23.08;65.46
63899;HTU21D;50070;-32.946;-60.652;2023-02-04T08:57:59;22.98;65.68
63899;HTU21D;50070;-32.946;-60.652;2023-02-04T09:00:27;23.03;65.62
63899;HTU21D;50070;-32.946;-60.652;2023-02-04T09:02:55;22.80;66.48
63899;HTU21D;50070;-32.946;-60.652;2023-02-04T09:05:21;22.93;65.99
63899;HTU21D;50070;-32.946;-60.652;2023-02-04T09:07:48;22.76;66.81
63899;HTU21D;50070;-32.946;-60.652;2023-02-04T09:10:14;22.99;66.04
63899;HTU21D;50070;-32.946;-60.652;2023-02-04T09:12:41;22.93;66.33
63899;HTU21D;50070;-32.946;-60.652;2023-02-04T09:15:09;22.90;66.56
63899;HTU21D;50070;-32.946;-60.652;2023-02-04T09:17:37;22.98;66.14
63899;HTU21D;50070;-32.946;-60.652;2023-02-04T09:20:04;22.96;66.32
63899;HTU21D;50070;-32.946;-60.652;2023-02-04T09:22:31;23.13;65.74
63899;HTU21D;50070;-32.946;-60.652;2023-02-04T09:24:58;23.20;65.72
63899;HTU21D;50070;-32.946;-60.652;2023-02-04T09:27:25;22.92;66.51
63899;HTU21D;50070;-32.946;-60.652;2023-02-04T09:29:54;22.99;66.20
63899;HTU21D;50070;-32.946;-60.652;2023-02-04T09:32:21;22.81;67.06
63899;HTU21D;50070;-32.946;-60.652;2023-02-04T09:34:48;22.81;67.17
63899;HTU21D;50070;-32.946;-60.652;2023-02-04T09:37:15;22.65;67.75
63899;HTU21D;50070;-32.946;-60.652;2023-02-04T09:39:41;22.91;66.89
63899;HTU21D;50070;-32.946;-60.652;2023-02-04T09:42:09;23.03;66.34
63899;HTU21D;50070;-32.946;-60.652;2023-02-04T09:44:38;22.54;68.32
63899;HTU21D;50070;-32.946;-60.652;2023-02-04T09:47:05;22.24;70.14
63899;HTU21D;50070;-32.946;-60.652;2023-02-04T09:49:32;22.63;68.57
63899;HTU21D;50070;-32.946;-60.652;2023-02-04T09:51:59;22.91;67.68
63899;HTU21D;50070;-32.946;-60.652;2023-02-04T09:54:26;22.40;69.45
63899;HTU21D;50070;-32.946;-60.652;2023-02-04T09:56:52;22.63;68.66
63899;HTU21D;50070;-32.946;-60.652;2023-02-04T09:59:25;22.69;68.44
63899;HTU21D;50070;-32.946;-60.652;2023-02-04T10:02:01;22.87;67.72
63899;HTU21D;50070;-32.946;-60.652;2023-02-04T10:04:28;22.55;68.94
63899;HTU21D;50070;-32.946;-60.652;2023-02-04T10:06:56;22.80;68.10
63899;HTU21D;50070;-32.946;-60.652;2023-02-04T10:09:24;22.94;67.62
63899;HTU21D;50070;-32.946;-60.652;2023-02-04T10:11:50;22.81;68.01
63899;HTU21D;50070;-32.946;-60.652;2023-02-04T10:14:20;22.98;67.55
63899;HTU21D;50070;-32.946;-60.652;2023-02-04T10:16:50;22.61;68.72
63899;HTU21D;50070;-32.946;-60.652;2023-02-04T10:19:17;22.77;68.42
63899;HTU21D;50070;-32.946;-60.652;2023-02-04T10:21:44;22.73;68.60
63899;HTU21D;50070;-32.946;-60.652;2023-02-04T10:24:16;22.71;68.79
63899;HTU21D;50070;-32.946;-60.652;2023-02-04T10:26:44;22.94;67.83
63899;HTU21D;50070;-32.946;-60.652;2023-02-04T10:29:14;23.21;66.79
63899;HTU21D;50070;-32.946;-60.652;2023-02-04T10:31:44;23.03;67.68
63899;HTU21D;50070;-32.946;-60.652;2023-02-04T10:34:23;22.87;68.39
63899;HTU21D;50070;-32.946;-60.652;2023-02-04T10:36:57;22.92;68.26
63899;HTU21D;50070;-32.946;-60.652;2023-02-04T10:39:26;23.03;67.98
63899;HTU21D;50070;-32.946;-60.652;2023-02-04T10:41:58;22.94;68.38
63899;HTU21D;50070;-32.946;-60.652;2023-02-04T10:44:31;23.12;67.88
63899;HTU21D;50070;-32.946;-60.652;2023-02-04T10:47:05;22.99;68.18
63899;HTU21D;50070;-32.946;-60.652;2023-02-04T10:49:33;23.21;67.33
63899;HTU21D;50070;-32.946;-60.652;2023-02-04T10:52:05;22.96;68.05
63899;HTU21D;50070;-32.946;-60.652;2023-02-04T10:54:39;23.27;66.90
63899;HTU21D;50070;-32.946;-60.652;2023-02-04T10:57:27;23.28;67.27
63899;HTU21D;50070;-32.946;-60.652;2023-02-04T10:59:59;23.35;67.03
63899;HTU21D;50070;-32.946;-60.652;2023-02-04T11:03:00;23.58;66.13
63899;HTU21D;50070;-32.946;-60.652;2023-02-04T11:05:32;23.72;65.21
63899;HTU21D;50070;-32.946;-60.652;2023-02-04T11:08:00;23.62;65.50
63899;HTU21D;50070;-32.946;-60.652;2023-02-04T11:10:31;23.87;64.57
63899;HTU21D;50070;-32.946;-60.652;2023-02-04T11:13:01;23.86;64.77
63899;HTU21D;50070;-32.946;-60.652;2023-02-04T11:15:44;23.91;64.44
63899;HTU21D;50070;-32.946;-60.652;2023-02-04T11:18:24;23.61;65.77
63899;HTU21D;50070;-32.946;-60.652;2023-02-04T11:20:57;23.34;66.98
63899;HTU21D;50070;-32.946;-60.652;2023-02-04T11:26:09;23.64;65.85
63899;HTU21D;50070;-32.946;-60.652;2023-02-04T11:39:40;23.97;65.08
63899;HTU21D;50070;-32.946;-60.652;2023-02-04T11:42:31;24.13;64.55
63899;HTU21D;50070;-32.946;-60.652;2023-02-04T11:45:10;24.39;63.46
63899;HTU21D;50070;-32.946;-60.652;2023-02-04T11:47:38;24.20;64.37
63899;HTU21D;50070;-32.946;-60.652;2023-02-04T11:50:17;24.29;64.15
63899;HTU21D;50070;-32.946;-60.652;2023-02-04T11:52:45;24.09;64.41
63899;HTU21D;50070;-32.946;-60.652;2023-02-04T11:55:12;24.66;62.69
63899;HTU21D;50070;-32.946;-60.652;2023-02-04T11:57:43;24.85;62.35
63899;HTU21D;50070;-32.946;-60.652;2023-02-04T12:00:17;24.97;61.96
63899;HTU21D;50070;-32.946;-60.652;2023-02-04T12:03:00;25.07;61.92
63899;HTU21D;50070;-32.946;-60.652;2023-02-04T12:05:43;25.44;60.74
63899;HTU21D;50070;-32.946;-60.652;2023-02-04T12:08:33;24.83;63.32
63899;HTU21D;50070;-32.946;-60.652;2023-02-04T12:13:28;24.78;63.20
63899;HTU21D;50070;-32.946;-60.652;2023-02-04T12:16:04;24.93;62.12
63899;HTU21D;50070;-32.946;-60.652;2023-02-04T12:18:32;25.28;61.18
63899;HTU21D;50070;-32.946;-60.652;2023-02-04T12:21:00;25.29;60.56
63899;HTU21D;50070;-32.946;-60.652;2023-02-04T12:23:29;25.29;60.98
63899;HTU21D;50070;-32.946;-60.652;2023-02-04T12:25:57;25.16;61.23
63899;HTU21D;50070;-32.946;-60.652;2023-02-04T12:28:24;25.37;60.49
63899;HTU21D;50070;-32.946;-60.652;2023-02-04T12:30:51;25.15;61.51
63899;HTU21D;50070;-32.946;-60.652;2023-02-04T12:33:17;25.50;60.46
63899;HTU21D;50070;-32.946;-60.652;2023-02-04T12:35:45;25.73;59.86
63899;HTU21D;50070;-32.946;-60.652;2023-02-04T12:38:11;25.87;59.08
63899;HTU21D;50070;-32.946;-60.652;2023-02-04T12:40:38;25.49;60.05
63899;HTU21D;50070;-32.946;-60.652;2023-02-04T12:43:06;25.67;58.83
63899;HTU21D;50070;-32.946;-60.652;2023-02-04T12:45:33;25.94;58.60
63899;HTU21D;50070;-32.946;-60.652;2023-02-04T12:47:59;25.78;58.67
63899;HTU21D;50070;-32.946;-60.652;2023-02-04T12:50:26;25.56;59.25
63899;HTU21D;50070;-32.946;-60.652;2023-02-04T12:52:55;25.43;58.51
63899;HTU21D;50070;-32.946;-60.652;2023-02-04T12:55:24;25.34;58.53
63899;HTU21D;50070;-32.946;-60.652;2023-02-04T12:57:51;25.60;57.56
63899;HTU21D;50070;-32.946;-60.652;2023-02-04T13:00:19;26.11;57.58
63899;HTU21D;50070;-32.946;-60.652;2023-02-04T13:02:46;26.03;57.73
63899;HTU21D;50070;-32.946;-60.652;2023-02-04T13:05:14;26.33;56.97
63899;HTU21D;50070;-32.946;-60.652;2023-02-04T13:07:41;26.66;56.23
63899;HTU21D;50070;-32.946;-60.652;2023-02-04T13:10:11;26.37;57.24
63899;HTU21D;50070;-32.946;-60.652;2023-02-04T13:12:38;26.20;55.77
63899;HTU21D;50070;-32.946;-60.652;2023-02-04T13:15:05;26.38;53.53
63899;HTU21D;50070;-32.946;-60.652;2023-02-04T13:17:32;26.24;52.37
63899;HTU21D;50070;-32.946;-60.652;2023-02-04T13:19:59;26.41;53.11
63899;HTU21D;50070;-32.946;-60.652;2023-02-04T13:22:26;26.58;52.53
63899;HTU21D;50070;-32.946;-60.652;2023-02-04T13:24:53;26.39;51.85
63899;HTU21D;50070;-32.946;-60.652;2023-02-04T13:27:20;26.65;51.37
63899;HTU21D;50070;-32.946;-60.652;2023-02-04T13:29:46;27.07;50.78
63899;HTU21D;50070;-32.946;-60.652;2023-02-04T13:32:13;26.90;50.98
63899;HTU21D;50070;-32.946;-60.652;2023-02-04T13:34:40;26.99;50.89
63899;HTU21D;50070;-32.946;-60.652;2023-02-04T13:37:07;27.25;50.37
63899;HTU21D;50070;-32.946;-60.652;2023-02-04T13:39:33;27.15;50.67
63899;HTU21D;50070;-32.946;-60.652;2023-02-04T13:42:00;27.15;50.43
63899;HTU21D;50070;-32.946;-60.652;2023-02-04T13:44:27;27.39;50.56
63899;HTU21D;50070;-32.946;-60.652;2023-02-04T13:46:54;27.15;51.11
63899;HTU21D;50070;-32.946;-60.652;2023-02-04T13:49:21;26.71;50.56
63899;HTU21D;50070;-32.946;-60.652;2023-02-04T13:51:48;27.20;48.83
63899;HTU21D;50070;-32.946;-60.652;2023-02-04T13:54:15;26.56;49.14
63899;HTU21D;50070;-32.946;-60.652;2023-02-04T13:56:41;26.54;48.97
63899;HTU21D;50070;-32.946;-60.652;2023-02-04T13:59:08;26.51;48.57
63899;HTU21D;50070;-32.946;-60.652;2023-02-04T14:01:35;26.86;47.28
63899;HTU21D;50070;-32.946;-60.652;2023-02-04T14:04:02;27.15;46.18
63899;HTU21D;50070;-32.946;-60.652;2023-02-04T14:06:29;27.30;46.28
63899;HTU21D;50070;-32.946;-60.652;2023-02-04T14:09:00;27.44;46.47
63899;HTU21D;50070;-32.946;-60.652;2023-02-04T14:11:27;27.69;45.20
63899;HTU21D;50070;-32.946;-60.652;2023-02-04T14:13:54;27.91;45.09
63899;HTU21D;50070;-32.946;-60.652;2023-02-04T14:16:21;27.67;45.06
63899;HTU21D;50070;-32.946;-60.652;2023-02-04T14:18:48;27.67;45.54
63899;HTU21D;50070;-32.946;-60.652;2023-02-04T14:21:15;27.97;44.56
63899;HTU21D;50070;-32.946;-60.652;2023-02-04T14:23:42;28.06;46.48
63899;HTU21D;50070;-32.946;-60.652;2023-02-04T14:26:08;27.73;47.72
63899;HTU21D;50070;-32.946;-60.652;2023-02-04T14:28:35;27.46;48.34
63899;HTU21D;50070;-32.946;-60.652;2023-02-04T14:31:02;27.55;47.65
63899;HTU21D;50070;-32.946;-60.652;2023-02-04T14:33:29;27.72;46.54
63899;HTU21D;50070;-32.946;-60.652;2023-02-04T14:35:56;27.22;46.43
63899;HTU21D;50070;-32.946;-60.652;2023-02-04T14:38:22;27.57;44.85
63899;HTU21D;50070;-32.946;-60.652;2023-02-04T14:40:49;27.57;44.22
63899;HTU21D;50070;-32.946;-60.652;2023-02-04T14:43:16;27.80;44.11
63899;HTU21D;50070;-32.946;-60.652;2023-02-04T14:45:43;28.08;44.29
63899;HTU21D;50070;-32.946;-60.652;2023-02-04T14:48:10;28.19;44.25
63899;HTU21D;50070;-32.946;-60.652;2023-02-04T14:50:37;28.09;44.94
63899;HTU21D;50070;-32.946;-60.652;2023-02-04T14:53:04;27.61;45.61
63899;HTU21D;50070;-32.946;-60.652;2023-02-04T14:55:30;28.01;44.14
63899;HTU21D;50070;-32.946;-60.652;2023-02-04T14:57:57;28.23;43.48
63899;HTU21D;50070;-32.946;-60.652;2023-02-04T15:00:24;28.32;43.32
63899;HTU21D;50070;-32.946;-60.652;2023-02-04T15:02:51;28.27;42.90
63899;HTU21D;50070;-32.946;-60.652;2023-02-04T15:05:18;28.26;42.13